ADDS METAR Data INFO
IDs: Format: Raw Decoded Include TAF

Data at: 1610 UTC 14 Aug 2018

KOVL 141555Z AUTO 31004KT 10SM BKN010 BKN050 23/21 A2996 RMK AO2 LTG DSNT S
KOVL 141535Z AUTO 31005KT 10SM CLR 23/21 A2996 RMK AO2 LTG DSNT SE AND S
KOVL 141515Z AUTO 31003KT 10SM TS SCT044 SCT120 23/21 A2995 RMK AO2 LTG DSNT S THRU W
KOVL 141455Z AUTO 32006KT 10SM SCT041 SCT050 23/21 A2995 RMK AO2
KOVL 141435Z AUTO 29006KT 10SM SCT037 24/21 A2994 RMK AO2
KOVL 141415Z AUTO 27004KT 10SM SCT035 23/21 A2993 RMK AO2
KOVL 141355Z AUTO 28006KT 10SM CLR 23/21 A2993 RMK AO2
KOVL 141335Z AUTO 22004KT 10SM CLR 23/21 A2992 RMK AO2
KOVL 141315Z AUTO 21003KT 10SM CLR 22/20 A2992 RMK AO2
KOVL 141255Z AUTO 00000KT 7SM CLR 21/20 A2992 RMK AO2
KOVL 141235Z AUTO 00000KT 7SM CLR 21/20 A2992 RMK AO2
KOVL 141215Z AUTO 00000KT 7SM CLR 21/20 A2992 RMK AO2
KOVL 141155Z AUTO 15003KT 7SM CLR 21/20 A2992 RMK AO2
KOVL 141135Z AUTO 15003KT 7SM CLR 20/19 A2992 RMK AO2
KOVL 141115Z AUTO 00000KT 7SM CLR 21/20 A2992 RMK AO2
KOVL 141055Z AUTO 00000KT 7SM CLR 21/20 A2992 RMK AO2
KOVL 141035Z AUTO 15004KT 7SM CLR 21/20 A2992 RMK AO2
KOVL 141015Z AUTO 14003KT 7SM CLR 21/20 A2993 RMK AO2
KOVL 140955Z AUTO 00000KT 10SM CLR 21/20 A2993 RMK AO2
KOVL 140935Z AUTO 00000KT 10SM CLR 21/20 A2993 RMK AO2
KOVL 140915Z AUTO 15003KT 10SM CLR 21/20 A2993 RMK AO2
KOVL 140855Z AUTO 00000KT 10SM CLR 21/19 A2993 RMK AO2
KOVL 140835Z AUTO 00000KT 10SM CLR 21/19 A2993 RMK AO2
KOVL 140815Z AUTO 00000KT 10SM CLR 21/19 A2994 RMK AO2
KOVL 140755Z AUTO 15006KT 10SM CLR 21/20 A2994 RMK AO2
KOVL 140735Z AUTO 15004KT 10SM CLR 21/20 A2994 RMK AO2
KOVL 140715Z AUTO 16005KT 10SM CLR 21/20 A2994 RMK AO2
KOVL 140655Z AUTO 16005KT 10SM CLR 21/20 A2994 RMK AO2
KOVL 140635Z AUTO 16004KT 10SM CLR 21/20 A2995 RMK AO2
KOVL 140615Z AUTO 16005KT 10SM CLR 22/20 A2995 RMK AO2
KOVL 140555Z AUTO 16004KT 10SM CLR 22/20 A2995 RMK AO2
KOVL 140535Z AUTO 16004KT 10SM CLR 22/20 A2995 RMK AO2
KOVL 140515Z AUTO 16004KT 10SM CLR 22/21 A2995 RMK AO2
KOVL 140455Z AUTO 15005KT 10SM CLR 22/20 A2995 RMK AO2
KOVL 140435Z AUTO 16004KT 10SM CLR 23/21 A2995 RMK AO2
KOVL 140415Z AUTO 17003KT 10SM CLR 23/21 A2995 RMK AO2
KOVL 140355Z AUTO 17003KT 10SM CLR 23/21 A2995 RMK AO2
KOVL 140335Z AUTO 17003KT 10SM CLR 23/21 A2995 RMK AO2
KOVL 140315Z AUTO 17005KT 10SM CLR 23/21 A2995 RMK AO2
KOVL 140255Z AUTO 17005KT 10SM CLR 24/21 A2995 RMK AO2
KOVL 140235Z AUTO 18004KT 10SM CLR 25/22 A2995 RMK AO2
KOVL 140215Z AUTO 17004KT 10SM CLR 25/21 A2994 RMK AO2
KOVL 140155Z AUTO 17004KT 10SM CLR 25/21 A2993 RMK AO2
KOVL 140135Z AUTO 17005KT 10SM CLR 26/22 A2993 RMK AO2
KOVL 140115Z AUTO 17004KT 10SM CLR 26/21 A2993 RMK AO2
KOVL 140055Z AUTO 18004KT 10SM CLR 27/21 A2993 RMK AO2
KOVL 140035Z AUTO 19003KT 10SM CLR 28/21 A2993 RMK AO2
KOVL 140015Z AUTO 19003KT 10SM CLR 28/21 A2993 RMK AO2
KOVL 132355Z AUTO 20006KT 10SM CLR 29/20 A2994 RMK AO2
KOVL 132335Z AUTO 20007KT 10SM CLR 30/21 A2994 RMK AO2
KOVL 132315Z AUTO 20009KT 10SM CLR 31/21 A2994 RMK AO2
KOVL 132255Z AUTO 20007KT 10SM CLR 31/21 A2994 RMK AO2
KOVL 132235Z AUTO 20007KT 10SM CLR 31/21 A2994 RMK AO2
KOVL 132215Z AUTO 20009G15KT 10SM CLR 32/22 A2994 RMK AO2
KOVL 132155Z AUTO 20008KT 10SM CLR 32/22 A2995 RMK AO2
KOVL 132135Z AUTO 20009KT 10SM CLR 32/21 A2995 RMK AO2
KOVL 132115Z AUTO 20009KT 10SM CLR 32/21 A2995 RMK AO2
KOVL 132055Z AUTO 21011KT 10SM CLR 32/21 A2995 RMK AO2
KOVL 132036Z AUTO 18008KT 10SM CLR 32/21 A2996 RMK AO2
KOVL 132015Z AUTO 20009G14KT 10SM CLR 32/21 A2996 RMK AO2
KOVL 131955Z AUTO 18008KT 10SM CLR 32/21 A2997 RMK AO2
KOVL 131935Z AUTO 19009G14KT 10SM CLR 32/21 A2997 RMK AO2
KOVL 131915Z AUTO 18008KT 10SM CLR 31/21 A2997 RMK AO2
KOVL 131855Z AUTO 18009KT 10SM CLR 31/20 A2998 RMK AO2
KOVL 131835Z AUTO 20008KT 10SM CLR 31/20 A2998 RMK AO2
KOVL 131815Z AUTO 21009G14KT 10SM CLR 30/21 A2998 RMK AO2
KOVL 131755Z AUTO 18006KT 10SM CLR 29/20 A2999 RMK AO2
KOVL 131736Z AUTO 17007KT 10SM CLR 28/20 A2999 RMK AO2
KOVL 131715Z AUTO 19009KT 10SM CLR 28/21 A3000 RMK AO2
KOVL 131655Z AUTO 18007KT 10SM CLR 28/21 A3000 RMK AO2
KOVL 131635Z AUTO 20008KT 10SM CLR 28/21 A3001 RMK AO2
KOVL 131615Z AUTO 20007KT 10SM CLR 27/20 A3001 RMK AO2
KOVL 131555Z AUTO 20007KT 10SM CLR 27/20 A3001 RMK AO2
KOVL 131535Z AUTO 19008KT 10SM CLR 26/20 A3001 RMK AO2
KOVL 131515Z AUTO 20006KT 10SM CLR 26/20 A3001 RMK AO2
KOVL 131455Z AUTO 21009KT 10SM CLR 25/20 A3001 RMK AO2
KOVL 131435Z AUTO 20009KT 10SM CLR 24/20 A3001 RMK AO2
KOVL 131415Z AUTO 20008KT 10SM CLR 23/20 A3002 RMK AO2
KOVL 131355Z AUTO 19006KT 10SM CLR 23/20 A3002 RMK AO2
KOVL 131335Z AUTO 19007KT 10SM CLR 22/20 A3002 RMK AO2
KOVL 131315Z AUTO 18007KT 10SM CLR 21/18 A3002 RMK AO2
KOVL 131255Z AUTO 17006KT 10SM CLR 21/20 A3002 RMK AO2
KOVL 131235Z AUTO 16005KT 7SM CLR 21/20 A3003 RMK AO2
KOVL 131215Z AUTO 15006KT 7SM CLR 21/20 A3003 RMK AO2
KOVL 131155Z AUTO 16005KT 7SM CLR 20/18 A3002 RMK AO2
KOVL 131135Z AUTO 16005KT 7SM CLR 20/18 A3003 RMK AO2
KOVL 131115Z AUTO 16004KT 10SM CLR 20/18 A3002 RMK AO2
KOVL 131055Z AUTO 16005KT 10SM CLR 20/18 A3003 RMK AO2
KOVL 131035Z AUTO 16005KT 10SM CLR 21/20 A3003 RMK AO2
KOVL 131015Z AUTO 16005KT 10SM CLR 21/20 A3003 RMK AO2
KOVL 130955Z AUTO 17004KT 10SM CLR 21/20 A3003 RMK AO2
KOVL 130935Z AUTO 16005KT 10SM CLR 21/20 A3003 RMK AO2
KOVL 130915Z AUTO 16004KT 10SM CLR 21/20 A3003 RMK AO2
KOVL 130855Z AUTO 16006KT 10SM CLR 21/20 A3003 RMK AO2
KOVL 130835Z AUTO 16006KT 10SM CLR 21/20 A3003 RMK AO2
KOVL 130815Z AUTO 16005KT 10SM CLR 21/20 A3004 RMK AO2
KOVL 130755Z AUTO 16006KT 10SM CLR 21/20 A3003 RMK AO2
KOVL 130736Z AUTO 15007KT 10SM CLR 21/19 A3003 RMK AO2
KOVL 130715Z AUTO 16005KT 10SM CLR 21/19 A3004 RMK AO2
KOVL 130655Z AUTO 16005KT 10SM CLR 21/19 A3004 RMK AO2
KOVL 130635Z AUTO 16005KT 10SM CLR 21/19 A3005 RMK AO2
KOVL 130615Z AUTO 16005KT 10SM CLR 21/20 A3005 RMK AO2
KOVL 130555Z AUTO 16005KT 10SM CLR 21/20 A3005 RMK AO2
KOVL 130535Z AUTO 15005KT 10SM CLR 21/20 A3005 RMK AO2
KOVL 130515Z AUTO 14005KT 10SM CLR 21/20 A3005 RMK AO2
KOVL 130455Z AUTO 14005KT 10SM CLR 21/20 A3005 RMK AO2
KOVL 130435Z AUTO 14005KT 10SM CLR 21/19 A3004 RMK AO2
KOVL 130415Z AUTO 14004KT 10SM CLR 21/20 A3004 RMK AO2